createdAt,value
2016-12-11T00:01:35.801Z,9.80
2016-12-11T00:04:30.393Z,9.79
2016-12-11T00:07:25.247Z,9.80
2016-12-11T00:13:14.327Z,9.79
2016-12-11T00:16:08.776Z,9.79
2016-12-11T00:19:03.141Z,9.80
2016-12-11T00:21:57.638Z,9.80
2016-12-11T00:24:52.066Z,9.81
2016-12-11T00:30:41.168Z,9.83
2016-12-11T00:33:35.666Z,9.83
2016-12-11T00:36:30.234Z,9.83
2016-12-11T00:39:24.615Z,9.83
2016-12-11T00:42:19.138Z,9.82
2016-12-11T00:45:13.638Z,9.80
2016-12-11T00:48:08.061Z,9.79
2016-12-11T00:51:02.549Z,9.79
2016-12-11T00:53:56.995Z,9.79
2016-12-11T00:56:51.605Z,9.78
2016-12-11T00:59:46.044Z,9.78
2016-12-11T01:02:40.456Z,9.78
2016-12-11T01:05:35.021Z,9.77
2016-12-11T01:11:23.751Z,9.75
2016-12-11T01:14:18.255Z,9.75
2016-12-11T01:17:12.614Z,9.76
2016-12-11T01:20:06.918Z,9.76
2016-12-11T01:23:01.355Z,9.76
2016-12-11T01:25:55.686Z,9.75
2016-12-11T01:28:50.169Z,9.73
2016-12-11T01:31:44.514Z,9.71
2016-12-11T01:34:39.033Z,9.66
2016-12-11T01:40:27.979Z,9.64
2016-12-11T01:43:22.285Z,9.65
2016-12-11T01:46:16.612Z,9.64
2016-12-11T01:49:11.168Z,9.64
2016-12-11T01:55:00.039Z,9.61
2016-12-11T01:57:54.411Z,9.60
2016-12-11T02:00:48.908Z,9.61
2016-12-11T02:03:43.603Z,9.60
2016-12-11T02:06:38.056Z,9.58
2016-12-11T02:09:32.450Z,9.57
2016-12-11T02:12:26.981Z,9.54
2016-12-11T02:15:21.388Z,9.54
2016-12-11T02:18:15.882Z,9.55
2016-12-11T02:21:10.345Z,9.55
2016-12-11T02:24:04.823Z,9.54
2016-12-11T02:26:59.224Z,9.54
2016-12-11T02:29:53.693Z,9.54
2016-12-11T02:32:48.198Z,9.55
2016-12-11T02:41:31.668Z,9.51
2016-12-11T02:44:26.215Z,9.52
2016-12-11T02:47:20.734Z,9.51
2016-12-11T02:50:15.092Z,9.51
2016-12-11T02:53:09.542Z,9.49
2016-12-11T02:58:58.498Z,9.46
2016-12-11T03:01:53.034Z,9.45
2016-12-11T03:07:42.102Z,9.45
2016-12-11T03:10:36.491Z,9.46
2016-12-11T03:13:30.970Z,9.43
2016-12-11T03:16:25.364Z,9.41
2016-12-11T03:19:20.334Z,9.40
2016-12-11T03:22:14.783Z,9.34
2016-12-11T03:25:09.188Z,9.30
2016-12-11T03:28:04.058Z,9.29
2016-12-11T03:30:58.650Z,9.24
2016-12-11T03:33:53.050Z,9.22
2016-12-11T03:36:47.870Z,9.20
2016-12-11T03:39:42.234Z,9.18
2016-12-11T03:42:36.671Z,9.17
2016-12-11T03:48:25.532Z,9.17
2016-12-11T03:51:19.965Z,9.17
2016-12-11T03:54:14.369Z,9.18
2016-12-11T04:00:03.283Z,9.17
2016-12-11T04:02:57.694Z,9.15
2016-12-11T04:08:46.431Z,9.10
2016-12-11T04:14:35.438Z,9.07
2016-12-11T04:20:24.205Z,9.00
2016-12-11T04:23:18.689Z,8.98
2016-12-11T04:26:13.148Z,8.95
2016-12-11T04:29:07.536Z,8.90
2016-12-11T04:32:01.809Z,8.89
2016-12-11T04:34:56.194Z,8.89
2016-12-11T04:37:50.672Z,8.89
2016-12-11T04:40:45.062Z,8.89
2016-12-11T04:43:39.385Z,8.90
2016-12-11T04:46:33.841Z,8.89
2016-12-11T04:49:28.246Z,8.88
2016-12-11T04:52:22.684Z,8.87
2016-12-11T04:55:17.049Z,8.84
2016-12-11T04:58:11.392Z,8.83
2016-12-11T05:04:00.325Z,8.79
2016-12-11T05:06:54.585Z,8.77
2016-12-11T05:12:43.322Z,8.72
2016-12-11T05:15:37.748Z,8.71
2016-12-11T05:18:32.256Z,8.70
2016-12-11T05:21:26.733Z,8.70
2016-12-11T05:24:21.028Z,8.68
2016-12-11T05:27:15.370Z,8.66
2016-12-11T05:33:04.101Z,8.64
2016-12-11T05:35:58.410Z,8.63
2016-12-11T05:38:52.780Z,8.63
2016-12-11T05:41:47.231Z,8.62
2016-12-11T05:47:36.117Z,8.58
2016-12-11T05:50:30.665Z,8.58
2016-12-11T05:53:25.395Z,8.58
2016-12-11T05:56:19.813Z,8.57
2016-12-11T05:59:14.154Z,8.56
2016-12-11T06:02:08.567Z,8.57
2016-12-11T06:05:03.011Z,8.57
2016-12-11T06:07:57.408Z,8.58
2016-12-11T06:16:40.533Z,8.56
2016-12-11T06:19:34.885Z,8.57
2016-12-11T06:22:29.180Z,8.55
2016-12-11T06:25:23.510Z,8.55
2016-12-11T06:28:17.969Z,8.57
2016-12-11T06:31:12.333Z,8.55
2016-12-11T06:37:01.104Z,8.57
2016-12-11T06:39:55.798Z,8.59
2016-12-11T06:42:50.150Z,8.59
2016-12-11T06:45:44.629Z,8.60
2016-12-11T06:48:39.027Z,8.61
2016-12-11T06:51:33.514Z,8.63
2016-12-11T06:54:27.883Z,8.66
2016-12-11T06:57:22.324Z,8.68
2016-12-11T07:00:16.875Z,8.70
2016-12-11T07:03:11.375Z,8.73
2016-12-11T07:06:05.860Z,8.76
2016-12-11T07:09:00.234Z,8.77
2016-12-11T07:11:54.692Z,8.80
2016-12-11T07:14:49.025Z,8.82
2016-12-11T07:17:43.546Z,8.83
2016-12-11T07:20:37.829Z,8.84
2016-12-11T07:23:32.232Z,8.86
2016-12-11T07:26:26.592Z,8.86
2016-12-11T07:29:21.071Z,8.86
2016-12-11T07:32:16.508Z,8.86
2016-12-11T07:35:09.896Z,8.86
2016-12-11T07:40:58.829Z,8.88
2016-12-11T07:43:53.232Z,8.90
2016-12-11T07:46:47.617Z,8.91
2016-12-11T07:49:42.052Z,8.94
2016-12-11T07:52:36.498Z,8.96
2016-12-11T07:55:30.959Z,8.96
2016-12-11T07:58:25.394Z,8.97
2016-12-11T08:01:19.730Z,8.96
2016-12-11T08:07:10.046Z,9.00
2016-12-11T08:10:03.516Z,9.02
2016-12-11T08:12:57.977Z,9.04
2016-12-11T08:15:52.411Z,9.05
2016-12-11T08:18:46.829Z,9.07
2016-12-11T08:21:41.241Z,9.09
2016-12-11T08:24:35.679Z,9.09
2016-12-11T08:27:30.117Z,9.12
2016-12-11T08:30:24.564Z,9.14
2016-12-11T08:33:19.068Z,9.15
2016-12-11T08:36:13.594Z,9.16
2016-12-11T08:39:07.993Z,9.18
2016-12-11T08:42:02.651Z,9.19
2016-12-11T08:44:57.105Z,9.20
2016-12-11T08:47:51.576Z,9.21
2016-12-11T08:50:45.872Z,9.22
2016-12-11T08:53:40.346Z,9.23
2016-12-11T08:56:34.729Z,9.26
2016-12-11T08:59:29.202Z,9.28
2016-12-11T09:02:23.728Z,9.31
2016-12-11T09:05:18.212Z,9.33
2016-12-11T09:08:12.566Z,9.34
2016-12-11T09:11:07.057Z,9.34
2016-12-11T09:14:01.517Z,9.35
2016-12-11T09:16:56.004Z,9.35
2016-12-11T09:22:44.921Z,9.35
2016-12-11T09:25:39.415Z,9.33
2016-12-11T09:34:22.850Z,9.29
2016-12-11T09:37:17.322Z,9.28
2016-12-11T09:40:11.736Z,9.26
2016-12-11T09:43:06.165Z,9.24
2016-12-11T09:46:00.632Z,9.23
2016-12-11T09:48:55.049Z,9.22
2016-12-11T09:51:49.543Z,9.22
2016-12-11T09:54:44.411Z,9.17
2016-12-11T09:57:38.885Z,9.11
2016-12-11T10:00:33.397Z,9.04
2016-12-11T10:03:27.868Z,8.92
2016-12-11T10:06:22.171Z,8.85
2016-12-11T10:09:16.589Z,8.78
2016-12-11T10:12:10.883Z,8.73
2016-12-11T10:15:05.331Z,8.67
2016-12-11T10:17:59.685Z,8.62
2016-12-11T10:20:53.984Z,8.54
2016-12-11T10:23:48.403Z,8.49
2016-12-11T10:26:43.022Z,8.46
2016-12-11T10:29:37.340Z,8.47
2016-12-11T10:32:31.805Z,8.48
2016-12-11T10:35:26.686Z,8.49
2016-12-11T10:41:15.463Z,8.45
2016-12-11T10:44:09.837Z,8.41
2016-12-11T10:47:04.140Z,8.34
2016-12-11T10:49:58.517Z,8.29
2016-12-11T10:52:52.924Z,8.22
2016-12-11T10:55:47.382Z,8.17
2016-12-11T10:58:41.786Z,8.14
2016-12-11T11:01:36.159Z,8.10
2016-12-11T11:04:30.570Z,8.06
2016-12-11T11:07:25.012Z,8.03
2016-12-11T11:10:19.357Z,8.03
2016-12-11T11:13:13.702Z,8.03
2016-12-11T11:16:08.053Z,7.99
2016-12-11T11:19:02.354Z,7.96
2016-12-11T11:21:56.591Z,7.95
2016-12-11T11:27:45.411Z,7.98
2016-12-11T11:30:40.373Z,8.02
2016-12-11T11:33:34.669Z,8.04
2016-12-11T11:36:29.120Z,8.06
2016-12-11T11:39:23.493Z,8.08
2016-12-11T11:42:18.342Z,8.13
2016-12-11T11:45:12.723Z,8.20
2016-12-11T11:48:07.025Z,8.23
2016-12-11T11:51:01.360Z,8.24
2016-12-11T11:53:55.758Z,8.26
2016-12-11T11:59:45.062Z,8.30
2016-12-11T12:02:39.543Z,8.32
2016-12-11T12:05:33.990Z,8.33
2016-12-11T12:08:28.262Z,8.33
2016-12-11T12:14:17.069Z,8.34
2016-12-11T12:17:11.450Z,8.32
2016-12-11T12:20:05.856Z,8.29
2016-12-11T12:23:00.237Z,8.26
2016-12-11T12:28:49.017Z,8.21
2016-12-11T12:34:37.721Z,8.22
2016-12-11T12:37:32.175Z,8.19
2016-12-11T12:40:26.529Z,8.15
2016-12-11T12:43:20.799Z,8.13
2016-12-11T12:46:15.224Z,8.11
2016-12-11T12:49:09.629Z,8.09
2016-12-11T12:52:03.992Z,8.11
2016-12-11T12:54:58.338Z,8.09
2016-12-11T12:57:52.798Z,8.10
2016-12-11T13:00:47.209Z,8.11
2016-12-11T13:09:30.439Z,8.18
2016-12-11T13:12:24.804Z,8.20
2016-12-11T13:15:19.090Z,8.24
2016-12-11T13:18:13.958Z,8.26
2016-12-11T13:21:08.376Z,8.29
2016-12-11T13:24:02.725Z,8.31
2016-12-11T13:26:57.205Z,8.33
2016-12-11T13:32:45.980Z,8.35
2016-12-11T13:35:40.359Z,8.34
2016-12-11T13:38:34.782Z,8.35
2016-12-11T13:44:23.728Z,8.41
2016-12-11T13:50:12.587Z,8.46
2016-12-11T13:53:07.038Z,8.48
2016-12-11T13:56:01.514Z,8.50
2016-12-11T13:58:55.863Z,8.52
2016-12-11T14:04:44.767Z,8.59
2016-12-11T14:07:39.246Z,8.59
2016-12-11T14:10:33.688Z,8.62
2016-12-11T14:13:28.175Z,8.65
2016-12-11T14:16:22.483Z,8.65
2016-12-11T14:19:16.956Z,8.67
2016-12-11T14:22:11.430Z,8.69
2016-12-11T14:25:05.911Z,8.71
2016-12-11T14:28:00.374Z,8.73
2016-12-11T14:30:54.711Z,8.73
2016-12-11T14:33:49.181Z,8.74
2016-12-11T14:36:43.770Z,8.75
2016-12-11T14:42:32.525Z,8.75
2016-12-11T14:45:26.887Z,8.75
2016-12-11T14:48:21.366Z,8.75
2016-12-11T14:51:15.690Z,8.74
2016-12-11T14:54:10.122Z,8.73
2016-12-11T14:57:04.498Z,8.78
2016-12-11T14:59:58.829Z,8.89
2016-12-11T15:02:53.259Z,8.94
2016-12-11T15:05:47.791Z,8.96
2016-12-11T15:11:36.723Z,8.83
2016-12-11T15:14:31.092Z,8.78
2016-12-11T15:17:25.467Z,8.73
2016-12-11T15:20:19.656Z,8.70
2016-12-11T15:23:14.224Z,8.66
2016-12-11T15:26:08.585Z,8.64
2016-12-11T15:29:03.042Z,8.62
2016-12-11T15:34:51.995Z,8.58
2016-12-11T15:37:46.377Z,8.57
2016-12-11T15:40:40.718Z,8.55
2016-12-11T15:46:29.357Z,8.53
2016-12-11T15:49:23.844Z,8.52
2016-12-11T15:52:18.226Z,8.51
2016-12-11T15:55:12.558Z,8.49
2016-12-11T15:58:07.299Z,8.47
2016-12-11T16:01:01.738Z,8.45
2016-12-11T16:09:44.971Z,8.34
2016-12-11T16:12:39.441Z,8.31
2016-12-11T16:15:33.893Z,8.24
2016-12-11T16:21:22.889Z,8.13
2016-12-11T16:24:17.224Z,8.14
2016-12-11T16:27:11.560Z,8.07
2016-12-11T16:30:06.044Z,7.99
2016-12-11T16:33:00.413Z,7.93
2016-12-11T16:35:54.773Z,7.87
2016-12-11T16:38:49.100Z,7.83
2016-12-11T16:41:43.378Z,7.79
2016-12-11T16:44:37.749Z,7.77
2016-12-11T16:47:32.048Z,7.76
2016-12-11T16:50:26.353Z,7.75
2016-12-11T16:53:20.778Z,7.73
2016-12-11T16:56:15.157Z,7.72
2016-12-11T16:59:09.561Z,7.71
2016-12-11T17:02:03.798Z,7.71
2016-12-11T17:07:52.687Z,7.70
2016-12-11T17:13:41.392Z,7.68
2016-12-11T17:16:35.807Z,7.70
2016-12-11T17:19:30.154Z,7.73
2016-12-11T17:22:24.542Z,7.75
2016-12-11T17:28:13.226Z,7.79
2016-12-11T17:31:07.478Z,7.81
2016-12-11T17:34:01.926Z,7.83
2016-12-11T17:39:50.604Z,7.86
2016-12-11T17:42:45.007Z,7.87
2016-12-11T17:45:39.413Z,7.87
2016-12-11T17:48:33.829Z,7.87
2016-12-11T17:51:28.242Z,7.87
2016-12-11T17:54:22.704Z,7.87
2016-12-11T17:57:17.056Z,7.87
2016-12-11T18:00:11.826Z,7.87
2016-12-11T18:06:00.346Z,7.97
2016-12-11T18:08:54.637Z,7.99
2016-12-11T18:11:49.124Z,8.00
2016-12-11T18:17:37.841Z,7.94
2016-12-11T18:20:32.195Z,7.92
2016-12-11T18:23:27.046Z,7.94
2016-12-11T18:26:21.380Z,7.92
2016-12-11T18:29:15.954Z,7.89
2016-12-11T18:32:10.295Z,7.87
2016-12-11T18:35:04.644Z,7.85
2016-12-11T18:40:53.510Z,7.81
2016-12-11T18:46:42.112Z,7.80
2016-12-11T18:49:36.537Z,7.78
2016-12-11T18:55:25.701Z,7.77
2016-12-11T18:58:19.965Z,7.78
2016-12-11T19:01:14.549Z,7.79
2016-12-11T19:07:03.265Z,7.80
2016-12-11T19:12:51.865Z,7.82
2016-12-11T19:15:46.351Z,7.81
2016-12-11T19:18:40.772Z,7.83
2016-12-11T19:21:35.116Z,7.82
2016-12-11T19:24:29.502Z,7.84
2016-12-11T19:27:23.887Z,7.87
2016-12-11T19:33:12.792Z,7.92
2016-12-11T19:36:07.154Z,7.94
2016-12-11T19:39:01.517Z,7.97
2016-12-11T19:44:50.341Z,8.02
2016-12-11T19:50:39.085Z,8.06
2016-12-11T19:53:33.491Z,8.07
2016-12-11T19:56:27.926Z,8.08
2016-12-11T19:59:22.363Z,8.09
2016-12-11T20:02:16.828Z,8.08
2016-12-11T20:10:59.900Z,8.10
2016-12-11T20:16:48.633Z,8.12
2016-12-11T20:22:37.548Z,8.14
2016-12-11T20:25:31.903Z,8.15
2016-12-11T20:28:26.265Z,8.15
2016-12-11T20:31:20.767Z,8.17
2016-12-11T20:34:15.086Z,8.19
2016-12-11T20:37:09.448Z,8.19
2016-12-11T20:40:03.779Z,8.20
2016-12-11T20:42:58.219Z,8.21
2016-12-11T20:45:52.968Z,8.21
2016-12-11T20:48:47.161Z,8.21
2016-12-11T20:51:42.165Z,8.20
2016-12-11T20:54:36.583Z,8.21
2016-12-11T20:57:31.118Z,8.22
2016-12-11T21:00:25.597Z,8.22
2016-12-11T21:03:19.881Z,8.22
2016-12-11T21:09:08.663Z,8.24
2016-12-11T21:12:03.059Z,8.26
2016-12-11T21:14:57.543Z,8.27
2016-12-11T21:17:51.986Z,8.27
2016-12-11T21:20:46.458Z,8.26
2016-12-11T21:23:40.968Z,8.24
2016-12-11T21:26:35.447Z,8.23
2016-12-11T21:32:24.216Z,8.23
2016-12-11T21:35:18.743Z,8.22
2016-12-11T21:38:13.132Z,8.22
2016-12-11T21:41:07.524Z,8.22
2016-12-11T21:44:01.983Z,8.23
2016-12-11T21:46:56.367Z,8.23
2016-12-11T21:49:50.817Z,8.25
2016-12-11T21:52:45.147Z,8.23
2016-12-11T21:55:39.568Z,8.21
2016-12-11T21:58:33.980Z,8.21
2016-12-11T22:01:28.274Z,8.22
2016-12-11T22:04:22.623Z,8.23
2016-12-11T22:07:16.998Z,8.23
2016-12-11T22:10:11.476Z,8.23
2016-12-11T22:13:05.831Z,8.24
2016-12-11T22:16:00.196Z,8.24
2016-12-11T22:18:54.556Z,8.25
2016-12-11T22:21:49.005Z,8.25
2016-12-11T22:24:43.504Z,8.26
2016-12-11T22:27:37.920Z,8.27
2016-12-11T22:30:32.380Z,8.28
2016-12-11T22:33:26.824Z,8.28
2016-12-11T22:36:21.363Z,8.29
2016-12-11T22:39:15.576Z,8.29
2016-12-11T22:42:10.035Z,8.29
2016-12-11T22:45:04.457Z,8.28
2016-12-11T22:47:58.905Z,8.28
2016-12-11T22:50:53.297Z,8.26
2016-12-11T22:53:47.859Z,8.25
2016-12-11T22:59:36.801Z,8.19
2016-12-11T23:02:31.081Z,8.17
2016-12-11T23:05:25.513Z,8.11
2016-12-11T23:08:19.959Z,8.07
2016-12-11T23:11:14.306Z,8.04
2016-12-11T23:14:08.709Z,8.05
2016-12-11T23:19:57.484Z,8.05
2016-12-11T23:22:51.848Z,8.03
2016-12-11T23:25:46.180Z,8.03
2016-12-11T23:28:40.650Z,8.03
2016-12-11T23:31:35.007Z,8.03
2016-12-11T23:34:29.457Z,8.04
2016-12-11T23:37:23.846Z,8.05
2016-12-11T23:43:12.758Z,8.05
2016-12-11T23:46:07.083Z,8.04
2016-12-11T23:49:01.362Z,8.03
2016-12-11T23:51:55.780Z,8.05
2016-12-11T23:57:44.487Z,8.03
